Weather at Bedourie Airport

Public forecast

Using degrees Celsius for public forecast. Weather courtesy of forecast.io.

Closest aviation weather report (METAR) to Bedourie Airport

Closest report is Birdsville Airport, 93.3 nm (172.9 km) S. Retrieved 2021/07/29 19:00 UTC (15 minutes ago):

YBDV 291900Z AUTO /////KT //// // ////// 14/01 Q1012

Closest aviation forecast (TAF) to Bedourie Airport

Closest forecast is Mount Isa Airport, 221.1 nm (409.5 km) N. Retrieved 2021/07/29 18:12 UTC (1 hour ago):

TAF TAF YBMA 291706Z 2918/3006 17008KT CAVOK FM300000 05008KT CAVOK